sensor_id;sensor_type;location;lat;lon;timestamp;P1;durP1;ratioP1;P2;durP2;ratioP2
46745;SDS011;32493;50.514;9.678;2023-04-06T00:01:20;8.32;;;4.63;;
46745;SDS011;32493;50.514;9.678;2023-04-06T00:03:26;7.43;;;4.85;;
46745;SDS011;32493;50.514;9.678;2023-04-06T00:05:32;9.77;;;4.45;;
46745;SDS011;32493;50.514;9.678;2023-04-06T00:07:37;9.90;;;4.53;;
46745;SDS011;32493;50.514;9.678;2023-04-06T00:09:42;9.15;;;5.13;;
46745;SDS011;32493;50.514;9.678;2023-04-06T00:11:50;8.15;;;4.50;;
46745;SDS011;32493;50.514;9.678;2023-04-06T00:13:56;7.63;;;4.28;;
46745;SDS011;32493;50.514;9.678;2023-04-06T00:16:03;11.40;;;4.88;;
46745;SDS011;32493;50.514;9.678;2023-04-06T00:18:09;8.77;;;4.78;;
46745;SDS011;32493;50.514;9.678;2023-04-06T00:20:14;13.52;;;5.80;;
46745;SDS011;32493;50.514;9.678;2023-04-06T00:22:20;8.93;;;4.70;;
46745;SDS011;32493;50.514;9.678;2023-04-06T00:24:26;9.43;;;5.60;;
46745;SDS011;32493;50.514;9.678;2023-04-06T00:26:31;11.15;;;4.68;;
46745;SDS011;32493;50.514;9.678;2023-04-06T00:28:39;11.63;;;4.68;;
46745;SDS011;32493;50.514;9.678;2023-04-06T00:30:44;9.52;;;4.30;;
46745;SDS011;32493;50.514;9.678;2023-04-06T00:32:50;9.68;;;4.63;;
46745;SDS011;32493;50.514;9.678;2023-04-06T00:34:55;12.20;;;4.70;;
46745;SDS011;32493;50.514;9.678;2023-04-06T00:37:01;8.27;;;4.60;;
46745;SDS011;32493;50.514;9.678;2023-04-06T00:39:07;7.93;;;4.88;;
46745;SDS011;32493;50.514;9.678;2023-04-06T00:41:12;11.55;;;4.90;;
46745;SDS011;32493;50.514;9.678;2023-04-06T00:43:18;13.68;;;5.40;;
46745;SDS011;32493;50.514;9.678;2023-04-06T00:45:27;10.23;;;5.25;;
46745;SDS011;32493;50.514;9.678;2023-04-06T00:47:32;10.77;;;5.53;;
46745;SDS011;32493;50.514;9.678;2023-04-06T00:49:38;12.23;;;5.07;;
46745;SDS011;32493;50.514;9.678;2023-04-06T00:51:47;9.52;;;4.53;;
46745;SDS011;32493;50.514;9.678;2023-04-06T00:53:52;9.98;;;4.95;;
46745;SDS011;32493;50.514;9.678;2023-04-06T00:55:57;8.90;;;5.07;;
46745;SDS011;32493;50.514;9.678;2023-04-06T00:58:09;10.80;;;5.32;;
46745;SDS011;32493;50.514;9.678;2023-04-06T01:00:22;10.45;;;5.28;;
46745;SDS011;32493;50.514;9.678;2023-04-06T01:02:34;10.93;;;4.90;;
46745;SDS011;32493;50.514;9.678;2023-04-06T01:04:40;9.07;;;4.78;;
46745;SDS011;32493;50.514;9.678;2023-04-06T01:06:54;9.15;;;4.82;;
46745;SDS011;32493;50.514;9.678;2023-04-06T01:09:10;10.05;;;4.97;;
46745;SDS011;32493;50.514;9.678;2023-04-06T01:11:16;8.20;;;4.75;;
46745;SDS011;32493;50.514;9.678;2023-04-06T01:13:24;10.45;;;5.20;;
46745;SDS011;32493;50.514;9.678;2023-04-06T01:15:34;10.18;;;5.68;;
46745;SDS011;32493;50.514;9.678;2023-04-06T01:17:45;9.23;;;5.13;;
46745;SDS011;32493;50.514;9.678;2023-04-06T01:19:51;13.27;;;4.90;;
46745;SDS011;32493;50.514;9.678;2023-04-06T01:22:03;9.32;;;4.80;;
46745;SDS011;32493;50.514;9.678;2023-04-06T01:24:20;14.82;;;4.82;;
46745;SDS011;32493;50.514;9.678;2023-04-06T01:26:48;10.45;;;4.72;;
46745;SDS011;32493;50.514;9.678;2023-04-06T01:28:54;11.05;;;5.30;;
46745;SDS011;32493;50.514;9.678;2023-04-06T01:31:02;9.63;;;5.15;;
46745;SDS011;32493;50.514;9.678;2023-04-06T01:33:19;12.85;;;5.50;;
46745;SDS011;32493;50.514;9.678;2023-04-06T01:35:33;10.77;;;5.07;;
46745;SDS011;32493;50.514;9.678;2023-04-06T01:37:47;8.75;;;5.10;;
46745;SDS011;32493;50.514;9.678;2023-04-06T01:40:03;10.68;;;5.00;;
46745;SDS011;32493;50.514;9.678;2023-04-06T01:42:17;15.35;;;5.80;;
46745;SDS011;32493;50.514;9.678;2023-04-06T01:44:22;9.15;;;5.20;;
46745;SDS011;32493;50.514;9.678;2023-04-06T01:46:38;16.95;;;5.55;;
46745;SDS011;32493;50.514;9.678;2023-04-06T01:48:48;13.02;;;5.72;;
46745;SDS011;32493;50.514;9.678;2023-04-06T01:51:08;11.68;;;5.35;;
46745;SDS011;32493;50.514;9.678;2023-04-06T01:53:21;14.00;;;5.47;;
46745;SDS011;32493;50.514;9.678;2023-04-06T01:55:36;10.98;;;5.20;;
46745;SDS011;32493;50.514;9.678;2023-04-06T01:57:53;12.90;;;5.53;;
46745;SDS011;32493;50.514;9.678;2023-04-06T02:00:09;18.50;;;5.72;;
46745;SDS011;32493;50.514;9.678;2023-04-06T02:02:23;10.35;;;5.00;;
46745;SDS011;32493;50.514;9.678;2023-04-06T02:04:36;13.85;;;5.28;;
46745;SDS011;32493;50.514;9.678;2023-04-06T02:06:45;8.98;;;4.68;;
46745;SDS011;32493;50.514;9.678;2023-04-06T02:08:55;12.68;;;5.55;;
46745;SDS011;32493;50.514;9.678;2023-04-06T02:11:03;10.32;;;5.07;;
46745;SDS011;32493;50.514;9.678;2023-04-06T02:13:20;14.52;;;5.63;;
46745;SDS011;32493;50.514;9.678;2023-04-06T02:15:27;10.85;;;6.18;;
46745;SDS011;32493;50.514;9.678;2023-04-06T02:17:33;13.43;;;5.40;;
46745;SDS011;32493;50.514;9.678;2023-04-06T02:19:38;14.00;;;5.68;;
46745;SDS011;32493;50.514;9.678;2023-04-06T02:21:43;16.88;;;5.38;;
46745;SDS011;32493;50.514;9.678;2023-04-06T02:23:49;9.65;;;4.95;;
46745;SDS011;32493;50.514;9.678;2023-04-06T02:25:54;9.50;;;5.35;;
46745;SDS011;32493;50.514;9.678;2023-04-06T02:28:02;10.07;;;5.45;;
46745;SDS011;32493;50.514;9.678;2023-04-06T02:30:08;10.82;;;5.78;;
46745;SDS011;32493;50.514;9.678;2023-04-06T02:32:15;9.15;;;5.40;;
46745;SDS011;32493;50.514;9.678;2023-04-06T02:34:21;12.35;;;5.10;;
46745;SDS011;32493;50.514;9.678;2023-04-06T02:36:28;10.70;;;5.22;;
46745;SDS011;32493;50.514;9.678;2023-04-06T02:38:33;12.27;;;5.70;;
46745;SDS011;32493;50.514;9.678;2023-04-06T02:40:38;9.77;;;5.00;;
46745;SDS011;32493;50.514;9.678;2023-04-06T02:42:52;9.98;;;5.22;;
46745;SDS011;32493;50.514;9.678;2023-04-06T02:45:06;11.55;;;5.20;;
46745;SDS011;32493;50.514;9.678;2023-04-06T02:47:17;11.23;;;5.30;;
46745;SDS011;32493;50.514;9.678;2023-04-06T02:49:24;12.70;;;5.80;;
46745;SDS011;32493;50.514;9.678;2023-04-06T02:51:32;11.70;;;5.68;;
46745;SDS011;32493;50.514;9.678;2023-04-06T02:53:50;10.25;;;5.70;;
46745;SDS011;32493;50.514;9.678;2023-04-06T02:55:55;11.95;;;6.00;;
46745;SDS011;32493;50.514;9.678;2023-04-06T02:58:10;11.10;;;5.88;;
46745;SDS011;32493;50.514;9.678;2023-04-06T03:00:23;14.32;;;6.35;;
46745;SDS011;32493;50.514;9.678;2023-04-06T03:02:29;13.07;;;6.20;;
46745;SDS011;32493;50.514;9.678;2023-04-06T03:04:41;12.23;;;5.70;;
46745;SDS011;32493;50.514;9.678;2023-04-06T03:06:57;8.13;;;5.35;;
46745;SDS011;32493;50.514;9.678;2023-04-06T03:09:10;12.23;;;5.93;;
46745;SDS011;32493;50.514;9.678;2023-04-06T03:11:18;13.05;;;6.38;;
46745;SDS011;32493;50.514;9.678;2023-04-06T03:13:25;10.77;;;5.75;;
46745;SDS011;32493;50.514;9.678;2023-04-06T03:15:34;13.02;;;6.05;;
46745;SDS011;32493;50.514;9.678;2023-04-06T03:17:48;12.27;;;6.00;;
46745;SDS011;32493;50.514;9.678;2023-04-06T03:20:08;13.15;;;6.65;;
46745;SDS011;32493;50.514;9.678;2023-04-06T03:22:14;13.35;;;6.10;;
46745;SDS011;32493;50.514;9.678;2023-04-06T03:24:21;15.98;;;6.60;;
46745;SDS011;32493;50.514;9.678;2023-04-06T03:26:27;13.52;;;6.47;;
46745;SDS011;32493;50.514;9.678;2023-04-06T03:28:38;10.57;;;5.82;;
46745;SDS011;32493;50.514;9.678;2023-04-06T03:30:45;10.65;;;5.95;;
46745;SDS011;32493;50.514;9.678;2023-04-06T03:32:58;14.98;;;6.45;;
46745;SDS011;32493;50.514;9.678;2023-04-06T03:35:07;11.50;;;5.60;;
46745;SDS011;32493;50.514;9.678;2023-04-06T03:37:13;13.85;;;6.22;;
46745;SDS011;32493;50.514;9.678;2023-04-06T03:39:24;12.65;;;6.32;;
46745;SDS011;32493;50.514;9.678;2023-04-06T03:41:30;12.45;;;6.10;;
46745;SDS011;32493;50.514;9.678;2023-04-06T03:43:42;13.57;;;5.60;;
46745;SDS011;32493;50.514;9.678;2023-04-06T03:45:50;12.02;;;6.55;;
46745;SDS011;32493;50.514;9.678;2023-04-06T03:47:55;15.55;;;6.80;;
46745;SDS011;32493;50.514;9.678;2023-04-06T03:50:01;16.17;;;6.45;;
46745;SDS011;32493;50.514;9.678;2023-04-06T03:52:08;15.25;;;6.15;;
46745;SDS011;32493;50.514;9.678;2023-04-06T03:54:14;13.25;;;6.28;;
46745;SDS011;32493;50.514;9.678;2023-04-06T03:56:19;12.45;;;6.55;;
46745;SDS011;32493;50.514;9.678;2023-04-06T03:58:25;12.32;;;6.25;;
46745;SDS011;32493;50.514;9.678;2023-04-06T04:00:30;11.80;;;5.70;;
46745;SDS011;32493;50.514;9.678;2023-04-06T04:02:38;14.50;;;5.88;;
46745;SDS011;32493;50.514;9.678;2023-04-06T04:04:43;16.42;;;6.88;;
46745;SDS011;32493;50.514;9.678;2023-04-06T04:06:48;16.88;;;7.32;;
46745;SDS011;32493;50.514;9.678;2023-04-06T04:08:54;16.20;;;7.28;;
46745;SDS011;32493;50.514;9.678;2023-04-06T04:10:59;16.88;;;8.05;;
46745;SDS011;32493;50.514;9.678;2023-04-06T04:13:04;18.77;;;7.60;;
46745;SDS011;32493;50.514;9.678;2023-04-06T04:15:10;14.20;;;7.40;;
46745;SDS011;32493;50.514;9.678;2023-04-06T04:17:15;17.77;;;6.55;;
46745;SDS011;32493;50.514;9.678;2023-04-06T04:19:23;19.02;;;8.13;;
46745;SDS011;32493;50.514;9.678;2023-04-06T04:21:30;23.35;;;9.50;;
46745;SDS011;32493;50.514;9.678;2023-04-06T04:23:42;29.63;;;10.32;;
46745;SDS011;32493;50.514;9.678;2023-04-06T04:25:48;26.40;;;11.65;;
46745;SDS011;32493;50.514;9.678;2023-04-06T04:27:53;25.08;;;10.95;;
46745;SDS011;32493;50.514;9.678;2023-04-06T04:29:59;26.05;;;11.00;;
46745;SDS011;32493;50.514;9.678;2023-04-06T04:32:05;19.58;;;8.40;;
46745;SDS011;32493;50.514;9.678;2023-04-06T04:34:10;16.35;;;6.78;;
46745;SDS011;32493;50.514;9.678;2023-04-06T04:36:18;17.55;;;7.70;;
46745;SDS011;32493;50.514;9.678;2023-04-06T04:40:30;17.42;;;8.35;;
46745;SDS011;32493;50.514;9.678;2023-04-06T04:42:41;24.15;;;8.27;;
46745;SDS011;32493;50.514;9.678;2023-04-06T04:44:57;20.45;;;7.68;;
46745;SDS011;32493;50.514;9.678;2023-04-06T04:47:10;15.55;;;7.30;;
46745;SDS011;32493;50.514;9.678;2023-04-06T04:49:19;13.98;;;6.95;;
46745;SDS011;32493;50.514;9.678;2023-04-06T04:51:28;19.58;;;6.40;;
46745;SDS011;32493;50.514;9.678;2023-04-06T04:55:57;16.25;;;6.75;;
46745;SDS011;32493;50.514;9.678;2023-04-06T04:58:03;20.20;;;6.50;;
46745;SDS011;32493;50.514;9.678;2023-04-06T05:00:21;17.25;;;6.47;;
46745;SDS011;32493;50.514;9.678;2023-04-06T05:02:33;19.67;;;6.47;;
46745;SDS011;32493;50.514;9.678;2023-04-06T05:04:47;15.50;;;6.45;;
46745;SDS011;32493;50.514;9.678;2023-04-06T05:07:06;13.57;;;6.20;;
46745;SDS011;32493;50.514;9.678;2023-04-06T05:09:15;15.15;;;6.07;;
46745;SDS011;32493;50.514;9.678;2023-04-06T05:11:26;15.07;;;6.82;;
46745;SDS011;32493;50.514;9.678;2023-04-06T05:13:41;12.55;;;6.20;;
46745;SDS011;32493;50.514;9.678;2023-04-06T05:15:54;15.80;;;6.45;;
46745;SDS011;32493;50.514;9.678;2023-04-06T05:18:08;18.00;;;6.22;;
46745;SDS011;32493;50.514;9.678;2023-04-06T05:20:13;28.45;;;6.63;;
46745;SDS011;32493;50.514;9.678;2023-04-06T05:22:28;17.58;;;6.93;;
46745;SDS011;32493;50.514;9.678;2023-04-06T05:26:55;12.60;;;6.57;;
46745;SDS011;32493;50.514;9.678;2023-04-06T05:29:02;18.10;;;6.93;;
46745;SDS011;32493;50.514;9.678;2023-04-06T05:31:15;22.13;;;6.63;;
46745;SDS011;32493;50.514;9.678;2023-04-06T05:33:25;21.35;;;6.38;;
46745;SDS011;32493;50.514;9.678;2023-04-06T05:35:39;20.45;;;7.20;;
46745;SDS011;32493;50.514;9.678;2023-04-06T05:37:53;17.63;;;7.07;;
46745;SDS011;32493;50.514;9.678;2023-04-06T05:40:03;14.25;;;7.28;;
46745;SDS011;32493;50.514;9.678;2023-04-06T05:42:14;16.55;;;7.20;;
46745;SDS011;32493;50.514;9.678;2023-04-06T05:44:27;16.15;;;6.60;;
46745;SDS011;32493;50.514;9.678;2023-04-06T05:46:41;12.60;;;6.50;;
46745;SDS011;32493;50.514;9.678;2023-04-06T05:48:50;19.92;;;8.75;;
46745;SDS011;32493;50.514;9.678;2023-04-06T05:50:59;12.43;;;7.25;;
46745;SDS011;32493;50.514;9.678;2023-04-06T05:53:19;14.48;;;7.47;;
46745;SDS011;32493;50.514;9.678;2023-04-06T05:55:30;19.02;;;8.18;;
46745;SDS011;32493;50.514;9.678;2023-04-06T05:57:50;17.25;;;7.40;;
46745;SDS011;32493;50.514;9.678;2023-04-06T05:59:55;16.10;;;7.53;;
46745;SDS011;32493;50.514;9.678;2023-04-06T06:02:12;14.55;;;7.15;;
46745;SDS011;32493;50.514;9.678;2023-04-06T06:04:23;16.77;;;7.18;;
46745;SDS011;32493;50.514;9.678;2023-04-06T06:06:30;16.67;;;7.38;;
46745;SDS011;32493;50.514;9.678;2023-04-06T06:08:55;13.20;;;7.15;;
46745;SDS011;32493;50.514;9.678;2023-04-06T06:11:06;16.17;;;7.85;;
46745;SDS011;32493;50.514;9.678;2023-04-06T06:13:12;15.50;;;8.00;;
46745;SDS011;32493;50.514;9.678;2023-04-06T06:15:19;15.68;;;7.57;;
46745;SDS011;32493;50.514;9.678;2023-04-06T06:17:26;19.20;;;8.02;;
46745;SDS011;32493;50.514;9.678;2023-04-06T06:19:33;16.45;;;8.30;;
46745;SDS011;32493;50.514;9.678;2023-04-06T06:21:42;14.85;;;7.47;;
46745;SDS011;32493;50.514;9.678;2023-04-06T06:23:49;19.57;;;8.07;;
46745;SDS011;32493;50.514;9.678;2023-04-06T06:25:58;15.68;;;8.70;;
46745;SDS011;32493;50.514;9.678;2023-04-06T06:28:04;14.88;;;8.27;;
46745;SDS011;32493;50.514;9.678;2023-04-06T06:30:10;18.63;;;7.50;;
46745;SDS011;32493;50.514;9.678;2023-04-06T06:32:17;16.25;;;8.23;;
46745;SDS011;32493;50.514;9.678;2023-04-06T06:34:25;19.25;;;7.97;;
46745;SDS011;32493;50.514;9.678;2023-04-06T06:36:34;16.75;;;8.32;;
46745;SDS011;32493;50.514;9.678;2023-04-06T06:38:43;16.92;;;8.55;;
46745;SDS011;32493;50.514;9.678;2023-04-06T06:43:02;16.77;;;8.15;;
46745;SDS011;32493;50.514;9.678;2023-04-06T06:45:17;23.63;;;9.43;;
46745;SDS011;32493;50.514;9.678;2023-04-06T06:47:23;14.10;;;7.57;;
46745;SDS011;32493;50.514;9.678;2023-04-06T06:49:28;18.20;;;8.20;;
46745;SDS011;32493;50.514;9.678;2023-04-06T06:51:35;18.65;;;8.23;;
46745;SDS011;32493;50.514;9.678;2023-04-06T06:53:40;21.02;;;9.02;;
46745;SDS011;32493;50.514;9.678;2023-04-06T06:55:45;13.25;;;7.88;;
46745;SDS011;32493;50.514;9.678;2023-04-06T07:00:15;18.50;;;8.35;;
46745;SDS011;32493;50.514;9.678;2023-04-06T07:02:25;16.33;;;8.20;;
46745;SDS011;32493;50.514;9.678;2023-04-06T07:04:30;21.00;;;10.23;;
46745;SDS011;32493;50.514;9.678;2023-04-06T07:06:36;14.68;;;8.57;;
46745;SDS011;32493;50.514;9.678;2023-04-06T07:08:42;14.65;;;8.48;;
46745;SDS011;32493;50.514;9.678;2023-04-06T07:10:47;17.27;;;8.55;;
46745;SDS011;32493;50.514;9.678;2023-04-06T07:12:54;15.27;;;8.53;;
46745;SDS011;32493;50.514;9.678;2023-04-06T07:15:01;18.70;;;8.75;;
46745;SDS011;32493;50.514;9.678;2023-04-06T07:17:10;25.42;;;9.15;;
46745;SDS011;32493;50.514;9.678;2023-04-06T07:19:16;22.45;;;9.85;;
46745;SDS011;32493;50.514;9.678;2023-04-06T07:21:21;14.50;;;9.35;;
46745;SDS011;32493;50.514;9.678;2023-04-06T07:23:29;16.35;;;9.00;;
46745;SDS011;32493;50.514;9.678;2023-04-06T07:25:35;16.27;;;9.73;;
46745;SDS011;32493;50.514;9.678;2023-04-06T07:27:43;18.08;;;9.52;;
46745;SDS011;32493;50.514;9.678;2023-04-06T07:29:50;18.05;;;8.98;;
46745;SDS011;32493;50.514;9.678;2023-04-06T07:31:56;17.65;;;8.93;;
46745;SDS011;32493;50.514;9.678;2023-04-06T07:34:04;16.83;;;8.88;;
46745;SDS011;32493;50.514;9.678;2023-04-06T07:36:10;18.55;;;8.55;;
46745;SDS011;32493;50.514;9.678;2023-04-06T07:38:17;18.80;;;9.40;;
46745;SDS011;32493;50.514;9.678;2023-04-06T07:40:23;16.95;;;8.90;;
46745;SDS011;32493;50.514;9.678;2023-04-06T07:42:34;19.83;;;9.05;;
46745;SDS011;32493;50.514;9.678;2023-04-06T07:44:41;18.27;;;9.10;;
46745;SDS011;32493;50.514;9.678;2023-04-06T07:46:48;18.25;;;8.82;;
46745;SDS011;32493;50.514;9.678;2023-04-06T07:48:55;19.25;;;9.43;;
46745;SDS011;32493;50.514;9.678;2023-04-06T07:51:09;21.48;;;9.95;;
46745;SDS011;32493;50.514;9.678;2023-04-06T07:53:18;17.05;;;8.88;;
46745;SDS011;32493;50.514;9.678;2023-04-06T07:55:25;20.77;;;9.68;;
46745;SDS011;32493;50.514;9.678;2023-04-06T07:57:31;24.73;;;10.45;;
46745;SDS011;32493;50.514;9.678;2023-04-06T07:59:36;15.40;;;8.52;;
46745;SDS011;32493;50.514;9.678;2023-04-06T08:01:41;17.83;;;9.02;;
46745;SDS011;32493;50.514;9.678;2023-04-06T08:03:46;17.95;;;8.32;;
46745;SDS011;32493;50.514;9.678;2023-04-06T08:05:52;17.25;;;9.55;;
46745;SDS011;32493;50.514;9.678;2023-04-06T08:08:00;17.20;;;8.93;;
46745;SDS011;32493;50.514;9.678;2023-04-06T08:10:06;15.45;;;8.35;;
46745;SDS011;32493;50.514;9.678;2023-04-06T08:14:18;17.25;;;8.35;;
46745;SDS011;32493;50.514;9.678;2023-04-06T08:16:26;15.52;;;8.77;;
46745;SDS011;32493;50.514;9.678;2023-04-06T08:18:32;17.48;;;8.15;;
46745;SDS011;32493;50.514;9.678;2023-04-06T08:20:38;13.18;;;7.30;;
46745;SDS011;32493;50.514;9.678;2023-04-06T08:22:44;11.38;;;6.97;;
46745;SDS011;32493;50.514;9.678;2023-04-06T08:24:55;13.15;;;7.10;;
46745;SDS011;32493;50.514;9.678;2023-04-06T08:27:01;13.68;;;7.13;;
46745;SDS011;32493;50.514;9.678;2023-04-06T08:29:06;12.18;;;7.35;;
46745;SDS011;32493;50.514;9.678;2023-04-06T08:31:15;14.30;;;6.82;;
46745;SDS011;32493;50.514;9.678;2023-04-06T08:33:20;15.20;;;6.70;;
46745;SDS011;32493;50.514;9.678;2023-04-06T08:35:25;12.18;;;7.18;;
46745;SDS011;32493;50.514;9.678;2023-04-06T08:37:32;12.50;;;6.72;;
46745;SDS011;32493;50.514;9.678;2023-04-06T08:39:40;13.15;;;7.25;;
46745;SDS011;32493;50.514;9.678;2023-04-06T08:41:48;12.40;;;6.93;;
46745;SDS011;32493;50.514;9.678;2023-04-06T08:46:04;13.00;;;6.97;;
46745;SDS011;32493;50.514;9.678;2023-04-06T08:48:09;10.60;;;6.88;;
46745;SDS011;32493;50.514;9.678;2023-04-06T08:50:16;15.57;;;7.35;;
46745;SDS011;32493;50.514;9.678;2023-04-06T08:52:22;11.98;;;6.97;;
46745;SDS011;32493;50.514;9.678;2023-04-06T08:54:29;13.48;;;7.78;;
46745;SDS011;32493;50.514;9.678;2023-04-06T08:56:37;13.48;;;6.53;;
46745;SDS011;32493;50.514;9.678;2023-04-06T08:58:46;12.35;;;7.22;;
46745;SDS011;32493;50.514;9.678;2023-04-06T09:00:54;13.90;;;7.15;;
46745;SDS011;32493;50.514;9.678;2023-04-06T09:02:59;12.75;;;7.03;;
46745;SDS011;32493;50.514;9.678;2023-04-06T09:05:05;11.98;;;7.15;;
46745;SDS011;32493;50.514;9.678;2023-04-06T09:07:12;13.05;;;6.90;;
46745;SDS011;32493;50.514;9.678;2023-04-06T09:09:17;11.27;;;7.13;;
46745;SDS011;32493;50.514;9.678;2023-04-06T09:11:25;11.57;;;6.55;;
46745;SDS011;32493;50.514;9.678;2023-04-06T09:13:32;9.68;;;5.38;;
46745;SDS011;32493;50.514;9.678;2023-04-06T09:15:59;10.52;;;6.28;;
46745;SDS011;32493;50.514;9.678;2023-04-06T09:18:06;15.32;;;6.55;;
46745;SDS011;32493;50.514;9.678;2023-04-06T09:20:13;9.47;;;5.77;;
46745;SDS011;32493;50.514;9.678;2023-04-06T09:22:34;9.50;;;6.47;;
46745;SDS011;32493;50.514;9.678;2023-04-06T09:24:41;10.00;;;6.30;;
46745;SDS011;32493;50.514;9.678;2023-04-06T09:26:47;13.93;;;6.17;;
46745;SDS011;32493;50.514;9.678;2023-04-06T09:28:59;9.05;;;5.55;;
46745;SDS011;32493;50.514;9.678;2023-04-06T09:31:10;11.05;;;6.10;;
46745;SDS011;32493;50.514;9.678;2023-04-06T09:33:21;10.88;;;6.25;;
46745;SDS011;32493;50.514;9.678;2023-04-06T09:35:27;13.75;;;4.50;;
46745;SDS011;32493;50.514;9.678;2023-04-06T09:37:34;12.48;;;7.15;;
46745;SDS011;32493;50.514;9.678;2023-04-06T09:39:39;12.32;;;6.18;;
46745;SDS011;32493;50.514;9.678;2023-04-06T09:41:48;10.52;;;6.35;;
46745;SDS011;32493;50.514;9.678;2023-04-06T09:44:04;9.80;;;6.80;;
46745;SDS011;32493;50.514;9.678;2023-04-06T09:46:13;10.48;;;6.20;;
46745;SDS011;32493;50.514;9.678;2023-04-06T09:48:20;9.95;;;5.95;;
46745;SDS011;32493;50.514;9.678;2023-04-06T09:50:31;10.77;;;6.18;;
46745;SDS011;32493;50.514;9.678;2023-04-06T09:52:42;10.65;;;6.18;;
46745;SDS011;32493;50.514;9.678;2023-04-06T09:54:55;12.80;;;6.82;;
46745;SDS011;32493;50.514;9.678;2023-04-06T09:57:05;10.40;;;6.15;;
46745;SDS011;32493;50.514;9.678;2023-04-06T09:59:21;12.27;;;6.35;;
46745;SDS011;32493;50.514;9.678;2023-04-06T10:03:43;11.52;;;5.80;;
46745;SDS011;32493;50.514;9.678;2023-04-06T10:05:59;13.77;;;6.25;;
46745;SDS011;32493;50.514;9.678;2023-04-06T10:08:11;12.27;;;6.80;;
46745;SDS011;32493;50.514;9.678;2023-04-06T10:10:19;10.93;;;6.45;;
46745;SDS011;32493;50.514;9.678;2023-04-06T10:12:25;10.43;;;6.65;;
46745;SDS011;32493;50.514;9.678;2023-04-06T10:14:33;13.10;;;6.13;;
46745;SDS011;32493;50.514;9.678;2023-04-06T10:16:40;10.82;;;6.53;;
46745;SDS011;32493;50.514;9.678;2023-04-06T10:18:46;10.90;;;6.30;;
46745;SDS011;32493;50.514;9.678;2023-04-06T10:20:57;10.85;;;5.88;;
46745;SDS011;32493;50.514;9.678;2023-04-06T10:23:09;12.00;;;6.18;;
46745;SDS011;32493;50.514;9.678;2023-04-06T10:25:26;10.02;;;5.90;;
46745;SDS011;32493;50.514;9.678;2023-04-06T10:27:34;9.77;;;5.22;;
46745;SDS011;32493;50.514;9.678;2023-04-06T10:29:47;12.07;;;6.97;;
46745;SDS011;32493;50.514;9.678;2023-04-06T10:31:54;12.30;;;6.80;;
46745;SDS011;32493;50.514;9.678;2023-04-06T10:34:00;10.77;;;5.35;;
46745;SDS011;32493;50.514;9.678;2023-04-06T10:36:10;15.35;;;7.50;;
46745;SDS011;32493;50.514;9.678;2023-04-06T10:38:18;11.23;;;6.57;;
46745;SDS011;32493;50.514;9.678;2023-04-06T10:40:27;13.65;;;6.97;;
46745;SDS011;32493;50.514;9.678;2023-04-06T10:42:36;13.75;;;7.13;;
46745;SDS011;32493;50.514;9.678;2023-04-06T10:44:43;14.73;;;7.00;;
46745;SDS011;32493;50.514;9.678;2023-04-06T10:46:54;11.90;;;5.95;;
46745;SDS011;32493;50.514;9.678;2023-04-06T10:49:11;11.23;;;5.15;;
46745;SDS011;32493;50.514;9.678;2023-04-06T10:51:17;12.40;;;6.78;;
46745;SDS011;32493;50.514;9.678;2023-04-06T10:53:24;11.70;;;6.90;;
46745;SDS011;32493;50.514;9.678;2023-04-06T10:55:30;13.68;;;7.22;;
46745;SDS011;32493;50.514;9.678;2023-04-06T10:57:35;14.15;;;6.75;;
46745;SDS011;32493;50.514;9.678;2023-04-06T10:59:42;12.48;;;6.93;;
46745;SDS011;32493;50.514;9.678;2023-04-06T11:01:51;11.85;;;6.57;;
46745;SDS011;32493;50.514;9.678;2023-04-06T11:04:00;10.70;;;6.40;;
46745;SDS011;32493;50.514;9.678;2023-04-06T11:06:05;11.25;;;6.50;;
46745;SDS011;32493;50.514;9.678;2023-04-06T11:08:10;9.95;;;6.20;;
46745;SDS011;32493;50.514;9.678;2023-04-06T11:10:28;9.10;;;5.00;;
46745;SDS011;32493;50.514;9.678;2023-04-06T11:12:35;12.48;;;6.63;;
46745;SDS011;32493;50.514;9.678;2023-04-06T11:14:40;14.32;;;7.38;;
46745;SDS011;32493;50.514;9.678;2023-04-06T11:16:48;11.00;;;6.85;;
46745;SDS011;32493;50.514;9.678;2023-04-06T11:18:55;9.52;;;6.18;;
46745;SDS011;32493;50.514;9.678;2023-04-06T11:21:03;12.70;;;5.97;;
46745;SDS011;32493;50.514;9.678;2023-04-06T11:23:08;12.85;;;6.70;;
46745;SDS011;32493;50.514;9.678;2023-04-06T11:25:13;12.48;;;6.97;;
46745;SDS011;32493;50.514;9.678;2023-04-06T11:27:20;11.43;;;6.30;;
46745;SDS011;32493;50.514;9.678;2023-04-06T11:29:27;11.13;;;6.13;;
46745;SDS011;32493;50.514;9.678;2023-04-06T11:31:41;10.13;;;6.05;;
46745;SDS011;32493;50.514;9.678;2023-04-06T11:33:57;9.55;;;6.55;;
46745;SDS011;32493;50.514;9.678;2023-04-06T11:36:02;11.85;;;6.80;;
46745;SDS011;32493;50.514;9.678;2023-04-06T11:38:08;10.80;;;6.35;;
46745;SDS011;32493;50.514;9.678;2023-04-06T11:40:14;10.90;;;6.47;;
46745;SDS011;32493;50.514;9.678;2023-04-06T11:42:23;9.75;;;5.22;;
46745;SDS011;32493;50.514;9.678;2023-04-06T11:44:31;12.75;;;7.15;;
46745;SDS011;32493;50.514;9.678;2023-04-06T11:46:40;11.05;;;7.05;;
46745;SDS011;32493;50.514;9.678;2023-04-06T11:49:00;11.70;;;6.88;;
46745;SDS011;32493;50.514;9.678;2023-04-06T11:51:06;10.88;;;6.43;;
46745;SDS011;32493;50.514;9.678;2023-04-06T11:53:11;12.35;;;6.60;;
46745;SDS011;32493;50.514;9.678;2023-04-06T11:55:19;12.00;;;6.50;;
46745;SDS011;32493;50.514;9.678;2023-04-06T11:57:24;9.13;;;6.18;;
46745;SDS011;32493;50.514;9.678;2023-04-06T11:59:30;9.95;;;6.00;;
46745;SDS011;32493;50.514;9.678;2023-04-06T12:01:44;12.80;;;6.55;;
46745;SDS011;32493;50.514;9.678;2023-04-06T12:03:52;10.52;;;7.07;;
46745;SDS011;32493;50.514;9.678;2023-04-06T12:06:01;7.43;;;3.50;;
46745;SDS011;32493;50.514;9.678;2023-04-06T12:08:06;9.05;;;6.03;;
46745;SDS011;32493;50.514;9.678;2023-04-06T12:10:12;7.85;;;5.40;;
46745;SDS011;32493;50.514;9.678;2023-04-06T12:12:17;10.77;;;5.50;;
46745;SDS011;32493;50.514;9.678;2023-04-06T12:14:22;10.18;;;6.43;;
46745;SDS011;32493;50.514;9.678;2023-04-06T12:16:32;10.38;;;6.63;;
46745;SDS011;32493;50.514;9.678;2023-04-06T12:18:37;9.93;;;5.95;;
46745;SDS011;32493;50.514;9.678;2023-04-06T12:20:42;10.73;;;6.00;;
46745;SDS011;32493;50.514;9.678;2023-04-06T12:22:50;10.50;;;6.10;;
46745;SDS011;32493;50.514;9.678;2023-04-06T12:24:56;8.75;;;5.78;;
46745;SDS011;32493;50.514;9.678;2023-04-06T12:27:01;8.95;;;5.82;;
46745;SDS011;32493;50.514;9.678;2023-04-06T12:29:11;9.75;;;5.50;;
46745;SDS011;32493;50.514;9.678;2023-04-06T12:31:16;5.75;;;4.30;;
46745;SDS011;32493;50.514;9.678;2023-04-06T12:33:23;8.00;;;5.23;;
46745;SDS011;32493;50.514;9.678;2023-04-06T12:35:32;6.03;;;3.40;;
46745;SDS011;32493;50.514;9.678;2023-04-06T12:37:40;9.52;;;5.72;;
46745;SDS011;32493;50.514;9.678;2023-04-06T12:39:49;8.10;;;5.53;;
46745;SDS011;32493;50.514;9.678;2023-04-06T12:41:54;9.27;;;6.13;;
46745;SDS011;32493;50.514;9.678;2023-04-06T12:44:00;8.50;;;5.57;;
46745;SDS011;32493;50.514;9.678;2023-04-06T12:46:06;7.30;;;4.78;;
46745;SDS011;32493;50.514;9.678;2023-04-06T12:51:18;8.10;;;5.15;;
46745;SDS011;32493;50.514;9.678;2023-04-06T12:53:26;11.77;;;5.90;;
46745;SDS011;32493;50.514;9.678;2023-04-06T12:55:36;10.52;;;6.13;;
46745;SDS011;32493;50.514;9.678;2023-04-06T12:57:42;8.35;;;5.45;;
46745;SDS011;32493;50.514;9.678;2023-04-06T12:59:47;7.18;;;4.82;;
46745;SDS011;32493;50.514;9.678;2023-04-06T13:01:53;8.60;;;5.40;;
46745;SDS011;32493;50.514;9.678;2023-04-06T13:03:58;9.00;;;5.70;;
46745;SDS011;32493;50.514;9.678;2023-04-06T13:06:03;8.02;;;5.50;;